GIA320 WIII-WARR
Flight info
| Callsign | GIA320 |
|---|---|
| Flight time | 1h 5m |
| Altitude | 31000 |
| Route | CA2A/07L CA T3 BA |
| Aircraft | B738/M-SDE2E3FGHIRWXY/LB1 |
Departure
| Time | 2026-05-09 12:00 |
|---|---|
| Airport | Soekarno-Hatta International Airport (WIII) |
Arrival
| Time | 2026-05-09 13:06 |
|---|---|
| Airport | Juanda International Airport (WARR) |
| Time | Latitude | Longitude | Altitude | Speed | Heading |
|---|---|---|---|---|---|
| 2026-05-09 11:35 | -6.11709 | 106.66554 | 43 ft | 0 kts | 165° |
| 2026-05-09 11:48 | -6.11697 | 106.66549 | 43 ft | 2 kts | 153° |
| 2026-05-09 11:48 | -6.11683 | 106.66543 | 43 ft | 2 kts | 159° |
| 2026-05-09 11:49 | -6.11668 | 106.66537 | 43 ft | 2 kts | 157° |
| 2026-05-09 11:49 | -6.11654 | 106.66531 | 43 ft | 2 kts | 159° |
| 2026-05-09 11:49 | -6.11639 | 106.66526 | 43 ft | 2 kts | 181° |
| 2026-05-09 11:49 | -6.11624 | 106.66531 | 43 ft | 2 kts | 218° |
| 2026-05-09 11:50 | -6.11614 | 106.66544 | 43 ft | 2 kts | 254° |
| 2026-05-09 11:50 | -6.11611 | 106.66557 | 43 ft | 0 kts | 249° |
| 2026-05-09 11:50 | -6.11610 | 106.66558 | 43 ft | 0 kts | 248° |
| 2026-05-09 11:52 | -6.11612 | 106.66554 | 43 ft | 2 kts | 248° |
| 2026-05-09 11:53 | -6.11622 | 106.66528 | 43 ft | 5 kts | 248° |
| 2026-05-09 11:53 | -6.11640 | 106.66481 | 43 ft | 7 kts | 253° |
| 2026-05-09 11:53 | -6.11633 | 106.66428 | 43 ft | 9 kts | 302° |
| 2026-05-09 11:53 | -6.11575 | 106.66396 | 43 ft | 11 kts | 339° |
| 2026-05-09 11:54 | -6.11483 | 106.66362 | 43 ft | 15 kts | 339° |
| 2026-05-09 11:54 | -6.11393 | 106.66326 | 43 ft | 12 kts | 338° |
| 2026-05-09 11:54 | -6.11349 | 106.66266 | 43 ft | 10 kts | 261° |
| 2026-05-09 11:54 | -6.11378 | 106.66187 | 43 ft | 14 kts | 249° |
| 2026-05-09 11:55 | -6.11420 | 106.66080 | 43 ft | 17 kts | 249° |
| 2026-05-09 11:56 | -6.11695 | 106.65384 | 43 ft | 23 kts | 248° |
| 2026-05-09 11:56 | -6.11759 | 106.65224 | 43 ft | 23 kts | 248° |
| 2026-05-09 11:56 | -6.11818 | 106.65074 | 43 ft | 20 kts | 249° |
| 2026-05-09 11:57 | -6.11873 | 106.64934 | 43 ft | 21 kts | 248° |
| 2026-05-09 11:57 | -6.11929 | 106.64793 | 43 ft | 21 kts | 248° |
| 2026-05-09 11:57 | -6.11986 | 106.64650 | 43 ft | 21 kts | 247° |
| 2026-05-09 11:57 | -6.12045 | 106.64502 | 43 ft | 23 kts | 249° |
| 2026-05-09 11:58 | -6.12104 | 106.64352 | 43 ft | 23 kts | 248° |
| 2026-05-09 11:58 | -6.12165 | 106.64197 | 43 ft | 25 kts | 249° |
| 2026-05-09 11:58 | -6.12223 | 106.64045 | 43 ft | 21 kts | 249° |
| 2026-05-09 11:58 | -6.12257 | 106.63934 | 43 ft | 11 kts | 265° |
| 2026-05-09 11:59 | -6.12222 | 106.63882 | 43 ft | 8 kts | 346° |
| 2026-05-09 11:59 | -6.12156 | 106.63900 | 43 ft | 13 kts | 33° |
| 2026-05-09 11:59 | -6.12087 | 106.63930 | 43 ft | 7 kts | 7° |
| 2026-05-09 11:59 | -6.12058 | 106.63975 | 43 ft | 12 kts | 68° |
| 2026-05-09 12:00 | -6.11937 | 106.64283 | 43 ft | 80 kts | 68° |
| 2026-05-09 12:00 | -6.11640 | 106.65035 | 43 ft | 139 kts | 68° |
| 2026-05-09 12:00 | -6.11221 | 106.66103 | 118 ft | 178 kts | 69° |
| 2026-05-09 12:00 | -6.10803 | 106.67275 | 698 ft | 180 kts | 66° |
| 2026-05-09 12:01 | -6.10044 | 106.68256 | 1270 ft | 185 kts | 38° |
| 2026-05-09 12:01 | -6.09100 | 106.69232 | 1547 ft | 211 kts | 52° |
| 2026-05-09 12:01 | -6.08142 | 106.70442 | 1819 ft | 233 kts | 49° |
| 2026-05-09 12:01 | -6.07026 | 106.71690 | 2224 ft | 250 kts | 46° |
| 2026-05-09 12:02 | -6.05785 | 106.72980 | 2747 ft | 260 kts | 45° |
| 2026-05-09 12:02 | -6.04516 | 106.74298 | 3404 ft | 265 kts | 46° |
| 2026-05-09 12:02 | -6.03232 | 106.75626 | 4097 ft | 268 kts | 45° |
| 2026-05-09 12:02 | -6.01946 | 106.76962 | 4775 ft | 271 kts | 45° |
| 2026-05-09 12:03 | -6.00610 | 106.78343 | 5020 ft | 281 kts | 45° |
| 2026-05-09 12:03 | -5.99292 | 106.79811 | 5750 ft | 280 kts | 54° |
| 2026-05-09 12:03 | -5.98404 | 106.81504 | 6518 ft | 280 kts | 73° |
| 2026-05-09 12:03 | -5.98211 | 106.83453 | 7205 ft | 283 kts | 95° |
| 2026-05-09 12:04 | -5.98634 | 106.85377 | 7912 ft | 285 kts | 107° |
| 2026-05-09 12:04 | -5.99279 | 106.87279 | 8597 ft | 288 kts | 109° |
| 2026-05-09 12:04 | -5.99965 | 106.89184 | 9278 ft | 291 kts | 111° |
| 2026-05-09 12:04 | -6.00749 | 106.91050 | 9980 ft | 294 kts | 113° |
| 2026-05-09 12:05 | -6.01543 | 106.92876 | 10376 ft | 307 kts | 113° |
| 2026-05-09 12:05 | -6.02425 | 106.94934 | 10499 ft | 330 kts | 112° |
| 2026-05-09 12:05 | -6.03337 | 106.97085 | 11078 ft | 336 kts | 112° |
| 2026-05-09 12:05 | -6.04242 | 106.99230 | 11679 ft | 341 kts | 112° |
| 2026-05-09 12:06 | -6.05174 | 107.01443 | 12385 ft | 343 kts | 112° |
| 2026-05-09 12:06 | -6.06094 | 107.03629 | 13038 ft | 346 kts | 112° |
| 2026-05-09 12:06 | -6.07037 | 107.05872 | 13726 ft | 348 kts | 112° |
| 2026-05-09 12:06 | -6.07976 | 107.08105 | 14384 ft | 352 kts | 112° |
| 2026-05-09 12:07 | -6.08920 | 107.10353 | 15050 ft | 355 kts | 112° |
| 2026-05-09 12:07 | -6.09886 | 107.12653 | 15710 ft | 358 kts | 112° |
| 2026-05-09 12:07 | -6.10858 | 107.14967 | 16353 ft | 361 kts | 112° |
| 2026-05-09 12:07 | -6.11830 | 107.17284 | 16975 ft | 364 kts | 112° |
| 2026-05-09 12:08 | -6.12779 | 107.19544 | 17561 ft | 367 kts | 112° |
| 2026-05-09 12:08 | -6.13761 | 107.21884 | 18148 ft | 370 kts | 112° |
| 2026-05-09 12:08 | -6.14759 | 107.24263 | 18741 ft | 373 kts | 112° |
| 2026-05-09 12:08 | -6.15771 | 107.26673 | 19315 ft | 376 kts | 112° |
| 2026-05-09 12:09 | -6.16790 | 107.29103 | 19874 ft | 379 kts | 112° |
| 2026-05-09 12:09 | -6.17815 | 107.31547 | 20429 ft | 381 kts | 112° |
| 2026-05-09 12:09 | -6.18843 | 107.33998 | 20958 ft | 384 kts | 112° |
| 2026-05-09 12:10 | -6.21974 | 107.41466 | 22469 ft | 392 kts | 112° |
| 2026-05-09 12:10 | -6.23037 | 107.44001 | 22949 ft | 395 kts | 112° |
| 2026-05-09 12:10 | -6.24108 | 107.46558 | 23415 ft | 398 kts | 112° |
| 2026-05-09 12:11 | -6.25177 | 107.49108 | 23876 ft | 400 kts | 112° |
| 2026-05-09 12:11 | -6.26259 | 107.51694 | 24315 ft | 403 kts | 112° |
| 2026-05-09 12:11 | -6.27358 | 107.54318 | 24769 ft | 405 kts | 112° |
| 2026-05-09 12:11 | -6.28376 | 107.56748 | 25161 ft | 408 kts | 112° |
| 2026-05-09 12:12 | -6.29475 | 107.59372 | 25578 ft | 410 kts | 112° |
| 2026-05-09 12:12 | -6.30582 | 107.62017 | 25988 ft | 412 kts | 112° |
| 2026-05-09 12:12 | -6.31694 | 107.64673 | 26379 ft | 415 kts | 112° |
| 2026-05-09 12:12 | -6.32819 | 107.67361 | 26776 ft | 417 kts | 112° |
| 2026-05-09 12:13 | -6.33950 | 107.70063 | 27164 ft | 419 kts | 112° |
| 2026-05-09 12:13 | -6.35074 | 107.72751 | 27545 ft | 421 kts | 112° |
| 2026-05-09 12:13 | -6.36206 | 107.75458 | 28008 ft | 421 kts | 111° |
| 2026-05-09 12:13 | -6.37333 | 107.78150 | 28473 ft | 420 kts | 111° |
| 2026-05-09 12:14 | -6.38457 | 107.80840 | 28930 ft | 419 kts | 111° |
| 2026-05-09 12:14 | -6.39587 | 107.83540 | 29411 ft | 418 kts | 111° |
| 2026-05-09 12:14 | -6.40701 | 107.86204 | 29841 ft | 417 kts | 111° |
| 2026-05-09 12:14 | -6.41827 | 107.88899 | 30292 ft | 415 kts | 111° |
| 2026-05-09 12:15 | -6.42943 | 107.91569 | 30709 ft | 414 kts | 111° |
| 2026-05-09 12:15 | -6.44047 | 107.94212 | 30876 ft | 416 kts | 111° |
| 2026-05-09 12:15 | -6.45169 | 107.96899 | 30853 ft | 414 kts | 111° |
| 2026-05-09 12:16 | -6.47385 | 108.02205 | 30859 ft | 409 kts | 111° |
| 2026-05-09 12:16 | -6.49582 | 108.07470 | 30858 ft | 410 kts | 111° |
| 2026-05-09 12:17 | -6.51787 | 108.12755 | 30858 ft | 411 kts | 111° |
| 2026-05-09 12:17 | -6.53981 | 108.18012 | 30858 ft | 411 kts | 111° |
| 2026-05-09 12:18 | -6.56199 | 108.23332 | 30858 ft | 411 kts | 111° |
| 2026-05-09 12:18 | -6.58398 | 108.28604 | 30858 ft | 411 kts | 111° |
| 2026-05-09 12:19 | -6.60599 | 108.33885 | 30858 ft | 411 kts | 111° |
| 2026-05-09 12:19 | -6.62797 | 108.39160 | 30858 ft | 411 kts | 111° |
| 2026-05-09 12:20 | -6.65011 | 108.44476 | 30858 ft | 411 kts | 111° |
| 2026-05-09 12:20 | -6.67206 | 108.49749 | 30858 ft | 411 kts | 111° |
| 2026-05-09 12:21 | -6.69247 | 108.55084 | 30857 ft | 410 kts | 106° |
| 2026-05-09 12:21 | -6.70426 | 108.60659 | 30859 ft | 409 kts | 98° |
| 2026-05-09 12:22 | -6.71338 | 108.66305 | 30858 ft | 409 kts | 98° |
| 2026-05-09 12:22 | -6.72222 | 108.71978 | 30858 ft | 409 kts | 98° |
| 2026-05-09 12:23 | -6.73081 | 108.77592 | 30858 ft | 409 kts | 98° |
| 2026-05-09 12:23 | -6.73939 | 108.83253 | 30858 ft | 409 kts | 98° |
| 2026-05-09 12:24 | -6.74779 | 108.88808 | 30858 ft | 409 kts | 98° |
| 2026-05-09 12:24 | -6.75630 | 108.94459 | 30858 ft | 409 kts | 98° |
| 2026-05-09 12:25 | -6.76475 | 109.00069 | 30858 ft | 409 kts | 98° |
| 2026-05-09 12:25 | -6.77329 | 109.05741 | 30858 ft | 409 kts | 98° |
| 2026-05-09 12:26 | -6.78180 | 109.11388 | 30857 ft | 409 kts | 98° |
| 2026-05-09 12:26 | -6.79028 | 109.17007 | 30858 ft | 409 kts | 98° |
| 2026-05-09 12:27 | -6.79880 | 109.22651 | 30858 ft | 409 kts | 98° |
| 2026-05-09 12:27 | -6.80738 | 109.28321 | 30858 ft | 409 kts | 98° |
| 2026-05-09 12:28 | -6.81593 | 109.33965 | 30858 ft | 409 kts | 98° |
| 2026-05-09 12:28 | -6.82451 | 109.39630 | 30858 ft | 409 kts | 98° |
| 2026-05-09 12:29 | -6.83307 | 109.45282 | 30858 ft | 409 kts | 98° |
| 2026-05-09 12:29 | -6.84159 | 109.50903 | 30858 ft | 409 kts | 98° |
| 2026-05-09 12:30 | -6.85014 | 109.56540 | 30858 ft | 409 kts | 98° |
| 2026-05-09 12:30 | -6.86301 | 109.65022 | 30858 ft | 409 kts | 98° |
| 2026-05-09 12:31 | -6.87589 | 109.73498 | 30858 ft | 409 kts | 98° |
| 2026-05-09 12:32 | -6.88450 | 109.79155 | 30857 ft | 409 kts | 98° |
| 2026-05-09 12:32 | -6.89309 | 109.84798 | 30858 ft | 409 kts | 98° |
| 2026-05-09 12:33 | -6.90166 | 109.90421 | 30858 ft | 409 kts | 98° |
| 2026-05-09 12:33 | -6.91033 | 109.96110 | 30858 ft | 409 kts | 98° |
| 2026-05-09 12:34 | -6.91885 | 110.01694 | 30858 ft | 409 kts | 98° |
| 2026-05-09 12:34 | -6.92771 | 110.07367 | 30858 ft | 409 kts | 99° |
| 2026-05-09 12:35 | -6.93661 | 110.12991 | 30857 ft | 409 kts | 98° |
| 2026-05-09 12:35 | -6.94541 | 110.18676 | 30858 ft | 410 kts | 98° |
| 2026-05-09 12:36 | -6.95402 | 110.24319 | 30858 ft | 409 kts | 98° |
| 2026-05-09 12:36 | -6.96256 | 110.29963 | 30858 ft | 409 kts | 98° |
| 2026-05-09 12:37 | -6.97106 | 110.35608 | 30857 ft | 409 kts | 98° |
| 2026-05-09 12:37 | -6.97538 | 110.41305 | 30859 ft | 409 kts | 91° |
| 2026-05-09 12:38 | -6.97642 | 110.47012 | 30858 ft | 410 kts | 91° |
| 2026-05-09 12:38 | -6.97742 | 110.52760 | 30857 ft | 409 kts | 91° |
| 2026-05-09 12:39 | -6.97843 | 110.58481 | 30858 ft | 409 kts | 91° |
| 2026-05-09 12:39 | -6.97944 | 110.64159 | 30858 ft | 409 kts | 91° |
| 2026-05-09 12:40 | -6.98045 | 110.69901 | 30857 ft | 409 kts | 91° |
| 2026-05-09 12:40 | -6.98145 | 110.75596 | 30858 ft | 409 kts | 91° |
| 2026-05-09 12:41 | -6.98245 | 110.81303 | 30858 ft | 409 kts | 91° |
| 2026-05-09 12:41 | -6.98345 | 110.87050 | 30858 ft | 409 kts | 91° |
| 2026-05-09 12:42 | -6.98443 | 110.92764 | 30858 ft | 410 kts | 91° |
| 2026-05-09 12:42 | -6.98541 | 110.98467 | 30858 ft | 410 kts | 91° |
| 2026-05-09 12:43 | -6.98638 | 111.04166 | 30459 ft | 404 kts | 91° |
| 2026-05-09 12:43 | -6.98686 | 111.06989 | 29946 ft | 401 kts | 91° |
| 2026-05-09 12:43 | -6.98733 | 111.09785 | 29450 ft | 398 kts | 91° |
| 2026-05-09 12:43 | -6.98780 | 111.12556 | 28951 ft | 395 kts | 91° |
| 2026-05-09 12:44 | -6.98827 | 111.15302 | 28459 ft | 392 kts | 91° |
| 2026-05-09 12:44 | -6.98872 | 111.18012 | 27965 ft | 389 kts | 91° |
| 2026-05-09 12:44 | -6.98917 | 111.20710 | 27466 ft | 387 kts | 91° |
| 2026-05-09 12:44 | -6.98963 | 111.23439 | 26976 ft | 388 kts | 91° |
| 2026-05-09 12:45 | -6.99007 | 111.26147 | 26493 ft | 392 kts | 91° |
| 2026-05-09 12:45 | -6.99053 | 111.28906 | 25992 ft | 396 kts | 90° |
| 2026-05-09 12:45 | -6.99098 | 111.31683 | 25486 ft | 400 kts | 90° |
| 2026-05-09 12:45 | -6.99144 | 111.34470 | 24978 ft | 398 kts | 90° |
| 2026-05-09 12:46 | -6.99189 | 111.37213 | 24474 ft | 383 kts | 90° |
| 2026-05-09 12:46 | -6.99294 | 111.39821 | 24016 ft | 369 kts | 94° |
| 2026-05-09 12:46 | -6.99581 | 111.42326 | 23558 ft | 357 kts | 100° |
| 2026-05-09 12:46 | -7.00139 | 111.44739 | 23111 ft | 346 kts | 104° |
| 2026-05-09 12:47 | -7.00772 | 111.47079 | 22684 ft | 353 kts | 105° |
| 2026-05-09 12:47 | -7.01432 | 111.49458 | 22206 ft | 355 kts | 105° |
| 2026-05-09 12:47 | -7.02099 | 111.51836 | 21753 ft | 353 kts | 105° |
| 2026-05-09 12:47 | -7.02769 | 111.54218 | 21302 ft | 351 kts | 105° |
| 2026-05-09 12:48 | -7.03425 | 111.56545 | 20859 ft | 349 kts | 105° |
| 2026-05-09 12:48 | -7.04081 | 111.58870 | 20416 ft | 347 kts | 105° |
| 2026-05-09 12:48 | -7.04742 | 111.61211 | 19971 ft | 345 kts | 105° |
| 2026-05-09 12:48 | -7.05390 | 111.63500 | 19533 ft | 343 kts | 105° |
| 2026-05-09 12:49 | -7.06046 | 111.65823 | 19088 ft | 341 kts | 105° |
| 2026-05-09 12:49 | -7.06692 | 111.68105 | 18651 ft | 339 kts | 105° |
| 2026-05-09 12:49 | -7.07331 | 111.70365 | 18218 ft | 338 kts | 105° |
| 2026-05-09 12:49 | -7.07969 | 111.72620 | 17774 ft | 332 kts | 105° |
| 2026-05-09 12:50 | -7.08593 | 111.74827 | 17375 ft | 328 kts | 105° |
| 2026-05-09 12:50 | -7.09219 | 111.77042 | 16940 ft | 327 kts | 105° |
| 2026-05-09 12:50 | -7.09841 | 111.79242 | 16516 ft | 326 kts | 105° |
| 2026-05-09 12:50 | -7.10453 | 111.81404 | 16101 ft | 324 kts | 105° |
| 2026-05-09 12:51 | -7.11070 | 111.83588 | 15680 ft | 323 kts | 105° |
| 2026-05-09 12:51 | -7.11677 | 111.85734 | 15267 ft | 322 kts | 105° |
| 2026-05-09 12:51 | -7.12290 | 111.87906 | 14848 ft | 320 kts | 105° |
| 2026-05-09 12:51 | -7.12899 | 111.90060 | 14432 ft | 319 kts | 105° |
| 2026-05-09 12:52 | -7.13498 | 111.92173 | 14027 ft | 317 kts | 106° |
| 2026-05-09 12:52 | -7.14178 | 111.94285 | 13643 ft | 315 kts | 108° |
| 2026-05-09 12:52 | -7.14888 | 111.96363 | 13251 ft | 313 kts | 108° |
| 2026-05-09 12:52 | -7.15582 | 111.98408 | 13032 ft | 305 kts | 108° |
| 2026-05-09 12:53 | -7.16260 | 112.00427 | 12929 ft | 305 kts | 108° |
| 2026-05-09 12:53 | -7.16947 | 112.02486 | 12684 ft | 311 kts | 108° |
| 2026-05-09 12:53 | -7.17632 | 112.04546 | 12270 ft | 310 kts | 108° |
| 2026-05-09 12:53 | -7.18307 | 112.06581 | 11876 ft | 309 kts | 108° |
| 2026-05-09 12:54 | -7.18980 | 112.08608 | 11475 ft | 307 kts | 108° |
| 2026-05-09 12:54 | -7.19665 | 112.10674 | 11069 ft | 306 kts | 108° |
| 2026-05-09 12:54 | -7.20331 | 112.12683 | 10672 ft | 305 kts | 108° |
| 2026-05-09 12:54 | -7.20995 | 112.14689 | 10276 ft | 303 kts | 108° |
| 2026-05-09 12:55 | -7.21662 | 112.16702 | 9994 ft | 297 kts | 108° |
| 2026-05-09 12:55 | -7.22302 | 112.18635 | 9891 ft | 286 kts | 108° |
| 2026-05-09 12:55 | -7.22933 | 112.20541 | 9445 ft | 289 kts | 108° |
| 2026-05-09 12:55 | -7.23558 | 112.22430 | 9037 ft | 281 kts | 108° |
| 2026-05-09 12:56 | -7.24166 | 112.24267 | 8699 ft | 274 kts | 108° |
| 2026-05-09 12:56 | -7.24762 | 112.26068 | 8357 ft | 273 kts | 108° |
| 2026-05-09 12:56 | -7.25361 | 112.27878 | 8007 ft | 273 kts | 108° |
| 2026-05-09 12:56 | -7.25964 | 112.29703 | 7658 ft | 272 kts | 108° |
| 2026-05-09 12:57 | -7.26554 | 112.31488 | 7317 ft | 272 kts | 108° |
| 2026-05-09 12:57 | -7.27153 | 112.33299 | 6971 ft | 271 kts | 108° |
| 2026-05-09 12:57 | -7.27746 | 112.35093 | 6628 ft | 270 kts | 108° |
| 2026-05-09 12:57 | -7.28343 | 112.36897 | 6284 ft | 269 kts | 108° |
| 2026-05-09 12:58 | -7.28935 | 112.38689 | 5943 ft | 268 kts | 108° |
| 2026-05-09 12:58 | -7.29516 | 112.40448 | 5604 ft | 267 kts | 108° |
| 2026-05-09 12:58 | -7.30105 | 112.42228 | 5262 ft | 266 kts | 108° |
| 2026-05-09 12:58 | -7.30691 | 112.44003 | 4926 ft | 265 kts | 108° |
| 2026-05-09 12:59 | -7.31262 | 112.45733 | 4732 ft | 258 kts | 108° |
| 2026-05-09 12:59 | -7.31963 | 112.47360 | 4661 ft | 247 kts | 117° |
| 2026-05-09 12:59 | -7.32740 | 112.48854 | 4535 ft | 239 kts | 115° |
| 2026-05-09 12:59 | -7.33331 | 112.50401 | 4406 ft | 231 kts | 103° |
| 2026-05-09 13:00 | -7.33636 | 112.51940 | 4283 ft | 224 kts | 99° |
| 2026-05-09 13:00 | -7.33892 | 112.53494 | 4159 ft | 222 kts | 98° |
| 2026-05-09 13:00 | -7.34140 | 112.55015 | 4039 ft | 223 kts | 98° |
| 2026-05-09 13:00 | -7.34392 | 112.56563 | 3990 ft | 221 kts | 98° |
| 2026-05-09 13:01 | -7.34645 | 112.58117 | 3856 ft | 226 kts | 98° |
| 2026-05-09 13:01 | -7.34901 | 112.59691 | 3567 ft | 225 kts | 98° |
| 2026-05-09 13:01 | -7.35151 | 112.61230 | 3206 ft | 219 kts | 98° |
| 2026-05-09 13:01 | -7.35391 | 112.62708 | 2964 ft | 205 kts | 98° |
| 2026-05-09 13:02 | -7.35617 | 112.64098 | 2659 ft | 197 kts | 98° |
| 2026-05-09 13:02 | -7.35829 | 112.65410 | 2387 ft | 180 kts | 98° |
| 2026-05-09 13:02 | -7.36019 | 112.66593 | 2162 ft | 163 kts | 98° |
| 2026-05-09 13:02 | -7.36193 | 112.67661 | 1940 ft | 151 kts | 98° |
| 2026-05-09 13:03 | -7.36363 | 112.68707 | 1744 ft | 149 kts | 98° |
| 2026-05-09 13:03 | -7.36529 | 112.69732 | 1544 ft | 150 kts | 98° |
| 2026-05-09 13:03 | -7.36697 | 112.70769 | 1338 ft | 149 kts | 98° |
| 2026-05-09 13:03 | -7.36863 | 112.71788 | 1138 ft | 148 kts | 98° |
| 2026-05-09 13:04 | -7.37030 | 112.72816 | 937 ft | 148 kts | 98° |
| 2026-05-09 13:04 | -7.37195 | 112.73832 | 739 ft | 147 kts | 98° |
| 2026-05-09 13:04 | -7.37364 | 112.74860 | 528 ft | 147 kts | 99° |
| 2026-05-09 13:04 | -7.37522 | 112.75875 | 336 ft | 146 kts | 99° |
| 2026-05-09 13:05 | -7.37691 | 112.76881 | 156 ft | 145 kts | 98° |
| 2026-05-09 13:05 | -7.37853 | 112.77877 | 14 ft | 138 kts | 98° |
| 2026-05-09 13:05 | -7.37972 | 112.78609 | 13 ft | 72 kts | 98° |
| 2026-05-09 13:05 | -7.38035 | 112.79006 | 9 ft | 50 kts | 98° |
| 2026-05-09 13:06 | -7.38039 | 112.79230 | 9 ft | 22 kts | 79° |
| 2026-05-09 13:06 | -7.38007 | 112.79335 | 10 ft | 13 kts | 71° |
| 2026-05-09 13:06 | -7.37965 | 112.79404 | 10 ft | 10 kts | 28° |
| 2026-05-09 13:06 | -7.37892 | 112.79417 | 11 ft | 9 kts | 8° |
| 2026-05-09 13:07 | -7.37822 | 112.79427 | 12 ft | 9 kts | 9° |
| 2026-05-09 13:07 | -7.37767 | 112.79436 | 14 ft | 6 kts | 9° |
| 2026-05-09 13:07 | -7.37721 | 112.79444 | 15 ft | 8 kts | 13° |
| 2026-05-09 13:07 | -7.37686 | 112.79485 | 17 ft | 6 kts | 94° |
| 2026-05-09 13:08 | -7.37683 | 112.79513 | 18 ft | 3 kts | 53° |
| 2026-05-09 13:08 | -7.37660 | 112.79523 | 19 ft | 3 kts | 8° |
| 2026-05-09 13:08 | -7.37627 | 112.79527 | 20 ft | 4 kts | 8° |
| 2026-05-09 13:08 | -7.37606 | 112.79530 | 20 ft | 0 kts | 9° |